createdAt,value
2022-09-16T00:00:57.193Z,20.87
2022-09-16T00:03:24.520Z,25.93
2022-09-16T00:05:53.987Z,27.20
2022-09-16T00:08:22.835Z,23.13
2022-09-16T00:10:50.723Z,20.17
2022-09-16T00:13:19.259Z,21.03
2022-09-16T00:15:51.243Z,25.70
2022-09-16T00:18:23.012Z,23.57
2022-09-16T00:20:54.673Z,29.43
2022-09-16T00:23:21.764Z,28.97
2022-09-16T00:25:55.434Z,27.60
2022-09-16T00:28:23.838Z,25.53
2022-09-16T00:30:51.295Z,28.50
2022-09-16T00:33:20.092Z,25.43
2022-09-16T00:35:47.661Z,27.87
2022-09-16T00:38:14.892Z,25.13
2022-09-16T00:40:49.747Z,24.10
2022-09-16T00:43:19.443Z,26.53
2022-09-16T00:46:03.689Z,21.90
2022-09-16T00:48:34.037Z,25.00
2022-09-16T00:51:09.160Z,25.73
2022-09-16T00:53:46.221Z,26.43
2022-09-16T00:56:19.517Z,26.03
2022-09-16T00:58:56.769Z,26.13
2022-09-16T01:01:23.746Z,23.90
2022-09-16T01:03:59.277Z,30.40
2022-09-16T01:06:28.710Z,30.40
2022-09-16T01:08:57.778Z,27.87
2022-09-16T01:11:25.337Z,25.03
2022-09-16T01:13:53.610Z,27.90
2022-09-16T01:16:32.628Z,25.27
2022-09-16T01:19:43.402Z,26.90
2022-09-16T01:22:36.386Z,24.87
2022-09-16T01:25:53.486Z,26.20
2022-09-16T01:28:54.587Z,25.60
2022-09-16T01:31:42.381Z,32.13
2022-09-16T01:34:34.187Z,21.23
2022-09-16T01:37:34.470Z,29.50
2022-09-16T01:40:45.811Z,33.10
2022-09-16T01:43:54.567Z,32.00
2022-09-16T01:46:48.975Z,24.50
2022-09-16T01:49:43.716Z,23.90
2022-09-16T01:53:04.606Z,23.00
2022-09-16T01:56:22.694Z,26.33
2022-09-16T01:59:08.578Z,24.10
2022-09-16T02:01:52.810Z,27.27
2022-09-16T02:04:31.746Z,33.57
2022-09-16T02:07:04.267Z,30.60
2022-09-16T02:09:42.292Z,26.03
2022-09-16T02:12:21.403Z,28.57
2022-09-16T02:14:54.542Z,25.13
2022-09-16T02:17:28.179Z,27.67
2022-09-16T02:20:12.970Z,29.90
2022-09-16T02:22:51.615Z,27.30
2022-09-16T02:25:22.995Z,27.80
2022-09-16T02:27:53.972Z,29.53
2022-09-16T02:30:23.736Z,29.70
2022-09-16T02:33:07.227Z,28.83
2022-09-16T02:35:39.124Z,26.60
2022-09-16T02:38:35.295Z,28.87
2022-09-16T02:41:03.361Z,24.90
2022-09-16T02:43:30.967Z,24.93
2022-09-16T02:46:50.069Z,27.60
2022-09-16T02:49:55.871Z,30.30
2022-09-16T02:52:55.555Z,26.67
2022-09-16T02:55:44.595Z,24.00
2022-09-16T02:58:11.855Z,29.17
2022-09-16T03:00:47.119Z,24.50
2022-09-16T03:03:15.361Z,26.90
2022-09-16T03:06:29.956Z,29.30
2022-09-16T03:09:01.426Z,25.53
2022-09-16T03:12:09.887Z,28.10
2022-09-16T03:15:00.579Z,27.70
2022-09-16T03:17:51.852Z,28.33
2022-09-16T03:21:08.796Z,23.90
2022-09-16T03:24:21.296Z,29.10
2022-09-16T03:27:20.664Z,26.50
2022-09-16T03:30:03.348Z,24.70
2022-09-16T03:32:48.355Z,27.50
2022-09-16T03:35:36.837Z,22.60
2022-09-16T03:38:08.210Z,24.47
2022-09-16T03:40:37.352Z,26.27
2022-09-16T03:43:16.561Z,26.70
2022-09-16T03:45:44.360Z,23.40
2022-09-16T03:48:13.604Z,31.57
2022-09-16T03:50:40.672Z,45.20
2022-09-16T03:53:07.758Z,35.50
2022-09-16T03:55:34.828Z,31.33
2022-09-16T03:58:01.661Z,30.83
2022-09-16T04:00:29.118Z,29.77
2022-09-16T04:02:56.290Z,29.97
2022-09-16T04:05:23.317Z,34.03
2022-09-16T04:07:50.291Z,36.80
2022-09-16T04:10:18.405Z,30.20
2022-09-16T04:12:46.001Z,29.33
2022-09-16T04:15:13.006Z,30.40
2022-09-16T04:17:40.052Z,25.87
2022-09-16T04:20:08.518Z,25.90
2022-09-16T04:22:35.600Z,22.90
2022-09-16T04:25:02.821Z,24.40
2022-09-16T04:27:29.665Z,22.17
2022-09-16T04:29:56.485Z,27.20
2022-09-16T04:32:23.637Z,23.27
2022-09-16T04:34:50.570Z,22.17
2022-09-16T04:37:17.553Z,25.50
2022-09-16T04:39:44.454Z,23.60
2022-09-16T04:42:12.449Z,25.80
2022-09-16T04:44:40.073Z,24.20
2022-09-16T04:47:07.130Z,22.93
2022-09-16T04:49:34.303Z,24.33
2022-09-16T04:52:01.477Z,27.17
2022-09-16T04:54:28.323Z,28.20
2022-09-16T04:56:55.153Z,27.97
2022-09-16T04:59:22.213Z,29.73
2022-09-16T05:01:49.198Z,31.93
2022-09-16T05:04:16.241Z,29.90
2022-09-16T05:06:44.386Z,26.93
2022-09-16T05:09:13.510Z,24.10
2022-09-16T05:11:42.102Z,30.57
2022-09-16T05:14:17.381Z,29.23
2022-09-16T05:16:45.823Z,26.10
2022-09-16T05:19:14.527Z,28.50
2022-09-16T05:21:42.526Z,25.17
2022-09-16T05:24:13.431Z,27.77
2022-09-16T05:26:43.188Z,29.03
2022-09-16T05:29:17.221Z,25.47
2022-09-16T05:31:47.325Z,25.13
2022-09-16T05:34:28.517Z,32.30
2022-09-16T05:36:56.678Z,36.37
2022-09-16T05:39:25.342Z,48.00
2022-09-16T05:41:59.714Z,40.70
2022-09-16T05:44:28.922Z,38.67
2022-09-16T05:46:56.325Z,34.70
2022-09-16T05:49:23.973Z,35.37
2022-09-16T05:51:52.426Z,32.03
2022-09-16T05:54:23.616Z,33.17
2022-09-16T05:56:51.774Z,35.23
2022-09-16T05:59:20.376Z,30.53
2022-09-16T06:01:47.262Z,27.30
2022-09-16T06:04:15.794Z,28.10
2022-09-16T06:06:47.141Z,28.73
2022-09-16T06:09:21.717Z,28.33
2022-09-16T06:11:55.605Z,30.17
2022-09-16T06:14:28.231Z,48.57
2022-09-16T06:16:55.705Z,27.40
2022-09-16T06:19:23.240Z,27.80
2022-09-16T06:21:50.257Z,25.37
2022-09-16T06:24:19.644Z,27.50
2022-09-16T06:26:49.339Z,28.97
2022-09-16T06:29:17.492Z,23.97
2022-09-16T06:31:44.548Z,25.10
2022-09-16T06:34:18.316Z,22.00
2022-09-16T06:36:45.858Z,22.23
2022-09-16T06:39:15.907Z,22.50
2022-09-16T06:41:43.300Z,23.03
2022-09-16T06:44:10.284Z,21.80
2022-09-16T06:46:37.221Z,30.00
2022-09-16T06:49:06.069Z,19.97
2022-09-16T06:51:35.701Z,21.00
2022-09-16T06:54:07.653Z,23.93
2022-09-16T06:56:37.509Z,18.67
2022-09-16T06:59:05.452Z,19.67
2022-09-16T07:01:33.897Z,17.77
2022-09-16T07:04:10.974Z,17.70
2022-09-16T07:07:07.647Z,24.80
2022-09-16T07:09:25.008Z,19.70
2022-09-16T07:11:52.072Z,16.37
2022-09-16T07:14:19.217Z,24.00
2022-09-16T07:16:46.509Z,19.57
2022-09-16T07:19:13.525Z,14.93
2022-09-16T07:21:41.517Z,14.33
2022-09-16T07:24:13.671Z,18.80
2022-09-16T07:26:43.201Z,71.47
2022-09-16T07:29:15.993Z,19.03
2022-09-16T07:31:43.744Z,94.90
2022-09-16T07:34:13.622Z,23.93
2022-09-16T07:36:45.893Z,55.77
2022-09-16T07:39:17.045Z,27.60
2022-09-16T07:41:48.346Z,28.47
2022-09-16T07:44:21.881Z,43.40
2022-09-16T07:46:51.024Z,18.47
2022-09-16T07:49:18.161Z,25.10
2022-09-16T07:51:45.201Z,16.63
2022-09-16T07:54:17.245Z,38.67
2022-09-16T07:56:45.689Z,18.93
2022-09-16T07:59:19.288Z,99.70
2022-09-16T08:03:47.188Z,13.37
2022-09-16T08:06:25.327Z,12.27
2022-09-16T08:08:55.717Z,13.20
2022-09-16T08:11:23.821Z,9.23
2022-09-16T08:13:51.766Z,20.63
2022-09-16T08:16:22.466Z,19.53
2022-09-16T08:18:56.630Z,7.43
2022-09-16T08:21:28.477Z,5.50
2022-09-16T08:23:57.257Z,11.03
2022-09-16T08:26:25.343Z,4.90
2022-09-16T08:29:09.760Z,10.50
2022-09-16T08:31:38.652Z,5.17
2022-09-16T08:34:06.340Z,5.77
2022-09-16T08:36:34.280Z,12.30
2022-09-16T08:39:01.701Z,8.10
2022-09-16T08:42:43.846Z,8.70
2022-09-16T08:45:52.495Z,13.60
2022-09-16T08:48:39.802Z,5.63
2022-09-16T08:51:17.338Z,9.47
2022-09-16T08:54:01.591Z,7.57
2022-09-16T08:56:36.864Z,6.13
2022-09-16T08:59:17.618Z,5.00
2022-09-16T09:02:19.128Z,12.03
2022-09-16T09:04:46.410Z,10.70
2022-09-16T09:08:26.763Z,7.43
2022-09-16T09:11:13.659Z,6.60
2022-09-16T09:14:27.659Z,4.40
2022-09-16T09:17:58.073Z,16.70
2022-09-16T09:20:56.851Z,18.80
2022-09-16T09:24:40.459Z,10.77
2022-09-16T09:27:36.883Z,4.37
2022-09-16T09:30:27.548Z,4.13
2022-09-16T09:33:47.418Z,7.80
2022-09-16T09:36:47.527Z,3.93
2022-09-16T09:40:09.378Z,3.43
2022-09-16T09:43:08.899Z,4.03
2022-09-16T09:46:05.247Z,5.07
2022-09-16T09:49:16.416Z,9.13
2022-09-16T09:51:55.475Z,5.40
2022-09-16T09:54:34.971Z,3.00
2022-09-16T09:57:17.477Z,3.67
2022-09-16T10:00:12.039Z,3.87
2022-09-16T10:02:48.864Z,2.87
2022-09-16T10:05:29.142Z,3.30
2022-09-16T10:08:20.289Z,2.93
2022-09-16T10:11:01.899Z,9.50
2022-09-16T10:13:30.975Z,5.00
2022-09-16T10:16:18.205Z,3.87
2022-09-16T10:18:45.475Z,3.97
2022-09-16T10:21:17.355Z,4.13
2022-09-16T10:23:58.315Z,2.53
2022-09-16T10:26:28.612Z,4.67
2022-09-16T10:29:15.250Z,5.03
2022-09-16T10:31:43.304Z,5.00
2022-09-16T10:34:33.428Z,8.00
2022-09-16T10:37:08.008Z,5.13
2022-09-16T10:39:35.055Z,4.63
2022-09-16T10:42:04.859Z,3.20
2022-09-16T10:44:37.135Z,3.03
2022-09-16T10:47:30.755Z,2.70
2022-09-16T10:50:06.639Z,10.80
2022-09-16T10:52:45.639Z,3.90
2022-09-16T10:55:35.131Z,9.50
2022-09-16T10:58:28.472Z,4.10
2022-09-16T11:01:13.243Z,9.57
2022-09-16T11:04:32.767Z,10.00
2022-09-16T11:07:56.119Z,3.43
2022-09-16T11:11:01.432Z,3.43
2022-09-16T11:14:13.906Z,6.00
2022-09-16T11:17:26.575Z,5.87
2022-09-16T11:20:44.523Z,5.67
2022-09-16T11:23:49.765Z,3.53
2022-09-16T11:26:44.499Z,4.30
2022-09-16T11:29:57.493Z,3.50
2022-09-16T11:33:32.678Z,6.83
2022-09-16T11:37:05.167Z,5.73
2022-09-16T11:40:00.839Z,10.33
2022-09-16T11:43:13.336Z,3.23
2022-09-16T11:46:24.927Z,4.80
2022-09-16T11:49:46.672Z,4.10
2022-09-16T11:52:53.748Z,5.80
2022-09-16T11:55:51.301Z,2.57
2022-09-16T11:58:58.468Z,4.37
2022-09-16T12:01:52.780Z,5.50
2022-09-16T12:04:45.256Z,5.00
2022-09-16T12:07:24.666Z,2.90
2022-09-16T12:10:21.696Z,4.80
2022-09-16T12:13:26.017Z,2.60
2022-09-16T12:16:09.609Z,2.60
2022-09-16T12:19:09.285Z,3.80
2022-09-16T12:21:48.597Z,4.90
2022-09-16T12:24:42.572Z,5.03
2022-09-16T12:27:52.378Z,4.30
2022-09-16T12:30:27.304Z,2.67
2022-09-16T12:33:21.970Z,3.23
2022-09-16T12:36:06.572Z,4.47
2022-09-16T12:38:35.133Z,7.07
2022-09-16T12:41:43.904Z,4.73
2022-09-16T12:44:38.162Z,4.60
2022-09-16T12:47:29.018Z,5.40
2022-09-16T12:50:51.870Z,3.90
2022-09-16T12:54:00.511Z,4.27
2022-09-16T12:56:54.350Z,3.03
2022-09-16T13:00:05.783Z,3.00
2022-09-16T13:02:57.689Z,5.47
2022-09-16T13:05:33.855Z,6.53
2022-09-16T13:08:27.982Z,4.07
2022-09-16T13:12:16.527Z,4.83
2022-09-16T13:14:30.111Z,4.20
2022-09-16T13:17:02.306Z,5.50
2022-09-16T13:20:14.389Z,4.00
2022-09-16T13:22:41.155Z,4.50
2022-09-16T13:25:30.859Z,4.70
2022-09-16T13:28:33.336Z,3.60
2022-09-16T13:31:12.853Z,3.80
2022-09-16T13:33:57.915Z,4.80
2022-09-16T13:36:25.279Z,5.57
2022-09-16T13:39:03.337Z,5.07
2022-09-16T13:41:41.868Z,3.40
2022-09-16T13:44:42.384Z,7.23
2022-09-16T13:47:12.192Z,5.30
2022-09-16T13:49:56.303Z,4.83
2022-09-16T13:52:35.929Z,6.33
2022-09-16T13:55:24.184Z,3.60
2022-09-16T13:58:35.344Z,5.77
2022-09-16T14:01:59.735Z,8.97
2022-09-16T14:04:50.234Z,8.60
2022-09-16T14:07:49.996Z,4.93
2022-09-16T14:10:54.659Z,12.00
2022-09-16T14:13:24.617Z,11.03
2022-09-16T14:15:57.560Z,9.90
2022-09-16T14:18:31.346Z,7.67
2022-09-16T14:21:23.612Z,13.77
2022-09-16T14:23:51.317Z,9.47
2022-09-16T14:26:24.115Z,6.30
2022-09-16T14:29:03.530Z,4.47
2022-09-16T14:31:33.825Z,9.57
2022-09-16T14:34:10.261Z,4.27
2022-09-16T14:36:40.548Z,6.07
2022-09-16T14:39:07.362Z,2.80
2022-09-16T14:41:58.980Z,3.73
2022-09-16T14:44:48.726Z,3.53
2022-09-16T14:47:51.173Z,3.07
2022-09-16T14:50:32.045Z,2.93
2022-09-16T14:53:09.007Z,3.43
2022-09-16T14:55:39.959Z,6.67
2022-09-16T14:58:11.942Z,3.37
2022-09-16T15:01:00.704Z,2.50
2022-09-16T15:03:43.098Z,2.27
2022-09-16T15:06:19.269Z,3.57
2022-09-16T15:09:13.804Z,4.40
2022-09-16T15:11:59.132Z,1.90
2022-09-16T15:14:27.700Z,3.40
2022-09-16T15:17:02.897Z,2.90
2022-09-16T15:19:39.718Z,2.80
2022-09-16T15:22:14.387Z,7.20
2022-09-16T15:24:42.903Z,3.50
2022-09-16T15:27:10.634Z,3.67
2022-09-16T15:29:55.635Z,6.57
2022-09-16T15:32:27.341Z,12.83
2022-09-16T15:35:27.510Z,4.33
2022-09-16T15:37:55.539Z,6.33
2022-09-16T15:40:28.453Z,6.07
2022-09-16T15:43:18.467Z,3.10
2022-09-16T15:46:00.195Z,6.60
2022-09-16T15:48:42.892Z,3.00
2022-09-16T15:51:32.092Z,3.00
2022-09-16T15:54:26.547Z,8.73
2022-09-16T15:57:29.668Z,5.40
2022-09-16T16:00:16.001Z,6.23
2022-09-16T16:03:04.985Z,3.90
2022-09-16T16:05:32.909Z,4.37
2022-09-16T16:08:09.567Z,2.20
2022-09-16T16:10:38.220Z,4.50
2022-09-16T16:13:05.174Z,3.20
2022-09-16T16:15:39.740Z,3.83
2022-09-16T16:18:10.573Z,2.20
2022-09-16T16:20:38.859Z,2.13
2022-09-16T16:23:06.063Z,2.57
2022-09-16T16:25:33.251Z,1.70
2022-09-16T16:28:00.174Z,2.37
2022-09-16T16:30:27.064Z,1.80
2022-09-16T16:32:53.993Z,1.97
2022-09-16T16:35:20.869Z,3.73
2022-09-16T16:37:47.903Z,2.13
2022-09-16T16:40:15.769Z,1.50
2022-09-16T16:42:44.415Z,2.53
2022-09-16T16:45:14.828Z,1.70
2022-09-16T16:47:42.859Z,1.47
2022-09-16T16:50:11.161Z,2.20
2022-09-16T16:52:39.008Z,4.00
2022-09-16T16:55:07.261Z,3.50
2022-09-16T16:57:34.388Z,3.70
2022-09-16T17:00:01.565Z,1.97
2022-09-16T17:02:28.512Z,1.60
2022-09-16T17:04:55.708Z,1.50
2022-09-16T17:07:27.366Z,3.43
2022-09-16T17:09:59.037Z,1.47
2022-09-16T17:12:26.925Z,3.00
2022-09-16T17:14:54.036Z,3.33
2022-09-16T17:17:21.080Z,1.77
2022-09-16T17:19:48.045Z,1.70
2022-09-16T17:22:15.894Z,1.43
2022-09-16T17:24:42.730Z,1.60
2022-09-16T17:27:09.644Z,2.47
2022-09-16T17:29:36.493Z,4.60
2022-09-16T17:32:03.516Z,2.80
2022-09-16T17:34:31.043Z,3.40
2022-09-16T17:36:58.503Z,1.90
2022-09-16T17:39:26.204Z,1.80
2022-09-16T17:41:56.367Z,2.90
2022-09-16T17:44:23.945Z,1.93
2022-09-16T17:46:50.782Z,2.13
2022-09-16T17:49:23.653Z,1.90
2022-09-16T17:51:53.418Z,2.20
2022-09-16T17:54:22.305Z,1.93
2022-09-16T17:56:49.399Z,2.27
2022-09-16T17:59:18.762Z,2.53
2022-09-16T18:01:46.488Z,2.90
2022-09-16T18:04:13.463Z,3.10
2022-09-16T18:06:46.717Z,2.03
2022-09-16T18:09:16.432Z,4.97
2022-09-16T18:11:44.137Z,2.67
2022-09-16T18:14:14.206Z,2.60
2022-09-16T18:16:42.470Z,2.70
2022-09-16T18:19:09.898Z,2.40
2022-09-16T18:21:38.015Z,3.10
2022-09-16T18:24:11.138Z,8.03
2022-09-16T18:26:39.423Z,2.83
2022-09-16T18:29:10.149Z,5.60
2022-09-16T18:31:42.533Z,3.00
2022-09-16T18:34:10.676Z,8.00
2022-09-16T18:36:39.112Z,2.63
2022-09-16T18:39:12.413Z,4.13
2022-09-16T18:41:42.386Z,5.60
2022-09-16T18:44:23.484Z,4.17
2022-09-16T18:46:52.027Z,2.80
2022-09-16T18:49:22.012Z,10.40
2022-09-16T18:51:52.607Z,4.10
2022-09-16T18:54:29.629Z,3.03
2022-09-16T18:57:01.824Z,3.03
2022-09-16T18:59:33.975Z,3.10
2022-09-16T19:02:03.737Z,7.00
2022-09-16T19:04:38.967Z,3.63
2022-09-16T19:07:08.209Z,4.47
2022-09-16T19:09:39.731Z,3.90
2022-09-16T19:12:12.487Z,3.93
2022-09-16T19:14:40.873Z,3.30
2022-09-16T19:17:07.921Z,5.40
2022-09-16T19:19:35.359Z,10.20
2022-09-16T19:22:05.464Z,4.00
2022-09-16T19:24:33.187Z,4.90
2022-09-16T19:27:00.129Z,3.70
2022-09-16T19:29:27.008Z,6.50
2022-09-16T19:31:54.535Z,3.83
2022-09-16T19:34:22.270Z,8.40
2022-09-16T19:36:50.282Z,3.70
2022-09-16T19:39:18.416Z,3.90
2022-09-16T19:41:45.528Z,5.70
2022-09-16T19:44:17.355Z,3.47
2022-09-16T19:46:46.715Z,3.60
2022-09-16T19:49:22.600Z,3.80
2022-09-16T19:51:53.087Z,4.27
2022-09-16T19:54:23.830Z,4.33
2022-09-16T19:56:51.376Z,7.23
2022-09-16T19:59:19.791Z,3.60
2022-09-16T20:01:47.911Z,4.20
2022-09-16T20:04:19.336Z,4.00
2022-09-16T20:06:46.752Z,3.83
2022-09-16T20:09:14.096Z,4.90
2022-09-16T20:11:46.261Z,5.90
2022-09-16T20:14:20.981Z,5.10
2022-09-16T20:16:51.419Z,6.17
2022-09-16T20:19:20.423Z,6.97
2022-09-16T20:21:47.575Z,5.50
2022-09-16T20:24:24.229Z,8.17
2022-09-16T20:26:54.744Z,8.40
2022-09-16T20:29:22.125Z,5.70
2022-09-16T20:31:53.397Z,6.43
2022-09-16T20:34:24.017Z,4.87
2022-09-16T20:36:51.229Z,4.47
2022-09-16T20:39:18.321Z,7.10
2022-09-16T20:41:49.541Z,4.40
2022-09-16T20:44:16.538Z,4.77
2022-09-16T20:46:44.033Z,5.00
2022-09-16T20:49:19.272Z,5.63
2022-09-16T20:51:46.428Z,6.13
2022-09-16T20:54:16.388Z,3.67
2022-09-16T20:56:47.883Z,9.70
2022-09-16T20:59:19.770Z,5.03
2022-09-16T21:01:48.330Z,10.67
2022-09-16T21:04:20.252Z,7.90
2022-09-16T21:06:47.485Z,7.23
2022-09-16T21:09:16.387Z,6.10
2022-09-16T21:11:44.793Z,6.27
2022-09-16T21:14:15.871Z,5.10
2022-09-16T21:16:45.813Z,4.53
2022-09-16T21:19:13.928Z,3.40
2022-09-16T21:21:44.634Z,5.87
2022-09-16T21:24:13.016Z,4.93
2022-09-16T21:26:41.195Z,3.70
2022-09-16T21:29:15.086Z,3.03
2022-09-16T21:31:43.685Z,2.97
2022-09-16T21:34:16.862Z,6.10
2022-09-16T21:36:45.159Z,4.53
2022-09-16T21:39:15.402Z,4.03
2022-09-16T21:41:45.291Z,2.33
2022-09-16T21:44:14.324Z,2.60
2022-09-16T21:46:46.243Z,3.20
2022-09-16T21:49:23.982Z,3.50
2022-09-16T21:51:55.210Z,2.87
2022-09-16T21:54:24.090Z,3.27
2022-09-16T21:56:52.346Z,4.90
2022-09-16T21:59:20.488Z,4.70
2022-09-16T22:01:50.519Z,6.60
2022-09-16T22:04:24.366Z,3.47
2022-09-16T22:06:55.342Z,4.10
2022-09-16T22:09:23.038Z,4.33
2022-09-16T22:11:50.143Z,3.60
2022-09-16T22:14:17.587Z,5.60
2022-09-16T22:16:44.930Z,2.60
2022-09-16T22:19:17.508Z,2.67
2022-09-16T22:21:49.039Z,2.80
2022-09-16T22:24:20.147Z,2.97
2022-09-16T22:26:51.642Z,5.57
2022-09-16T22:29:18.868Z,4.10
2022-09-16T22:31:46.071Z,3.40
2022-09-16T22:34:13.052Z,6.17
2022-09-16T22:36:40.167Z,10.07
2022-09-16T22:39:17.631Z,3.10
2022-09-16T22:41:44.640Z,3.90
2022-09-16T22:44:13.416Z,4.00
2022-09-16T22:46:46.124Z,4.47
2022-09-16T22:49:15.015Z,4.60
2022-09-16T22:51:42.891Z,2.97
2022-09-16T22:54:13.835Z,3.50
2022-09-16T22:56:42.387Z,3.40
2022-09-16T22:59:19.956Z,3.27
2022-09-16T23:01:47.525Z,8.47
2022-09-16T23:04:15.073Z,3.63
2022-09-16T23:06:43.116Z,4.37
2022-09-16T23:09:14.415Z,3.87
2022-09-16T23:11:41.846Z,5.33
2022-09-16T23:14:15.493Z,4.43
2022-09-16T23:16:42.444Z,5.63
2022-09-16T23:19:11.858Z,7.27
2022-09-16T23:21:40.422Z,4.10
2022-09-16T23:24:15.352Z,6.50
2022-09-16T23:26:42.749Z,5.53
2022-09-16T23:29:13.296Z,4.73
2022-09-16T23:31:44.288Z,11.97
2022-09-16T23:34:19.860Z,11.97
2022-09-16T23:36:48.860Z,3.10
2022-09-16T23:39:17.883Z,2.70
2022-09-16T23:41:46.052Z,3.57
2022-09-16T23:44:15.492Z,4.20
2022-09-16T23:46:42.983Z,3.30
2022-09-16T23:49:10.659Z,3.10
2022-09-16T23:51:37.860Z,9.67
2022-09-16T23:54:05.012Z,3.33
2022-09-16T23:56:32.599Z,5.63
2022-09-16T23:59:01.047Z,5.23
